Time;durP1;ratioP1;P1;durP2;ratioP2;P2;SDS_P1;SDS_P2;PMS_P1;PMS_P2;Temp;Humidity;BMP_temperature;BMP_pressure;BME280_temperature;BME280_humidity;BME280_pressure;Samples;Min_cycle;Max_cycle;Signal;HPM_P1;HPM_P2
2021/07/13 00:00:40;;;;;;;20.90;9.45;;;;;;;;;;5072076;28;20035;-88
2021/07/13 00:03:06;;;;;;;28.85;11.25;;;;;;;;;;5072720;28;20016;-87
2021/07/13 00:05:31;;;;;;;17.08;10.07;;;;;;;;;;5072231;28;20020;-88
2021/07/13 00:07:57;;;;;;;18.02;10.32;;;;;;;;;;5060729;28;20032;-87
2021/07/13 00:10:24;;;;;;;21.13;10.80;;;;;;;;;;5066306;28;20040;-87
2021/07/13 00:12:50;;;;;;;36.15;9.88;;;;;;;;;;5061040;28;20024;-87
2021/07/13 00:15:22;;;;;;;22.05;9.48;;;;;;;;;;5070796;28;20021;-87
2021/07/13 00:17:52;;;;;;;16.20;12.00;;;;;;;;;;5046087;28;20482;-87
2021/07/13 00:20:18;;;;;;;22.58;11.35;;;;;;;;;;5065955;28;20094;-87
2021/07/13 00:22:43;;;;;;;18.40;12.23;;;;;;;;;;5071029;28;20113;-87
2021/07/13 00:25:09;;;;;;;17.90;11.05;;;;;;;;;;5053388;28;20020;-87
2021/07/13 00:27:34;;;;;;;12.70;9.52;;;;;;;;;;5065072;28;20056;-87
2021/07/13 00:30:00;;;;;;;19.48;10.70;;;;;;;;;;5072057;28;20498;-87
2021/07/13 00:32:25;;;;;;;26.75;9.45;;;;;;;;;;5057615;28;20048;-87
2021/07/13 00:34:50;;;;;;;17.50;10.20;;;;;;;;;;5069961;28;20199;-87
2021/07/13 00:37:15;;;;;;;14.43;10.15;;;;;;;;;;5065892;28;20024;-87
2021/07/13 00:39:41;;;;;;;15.05;11.82;;;;;;;;;;5067721;28;20096;-87
2021/07/13 00:42:13;;;;;;;27.08;11.65;;;;;;;;;;5071819;28;20064;-87
2021/07/13 00:44:39;;;;;;;19.67;10.23;;;;;;;;;;5071776;28;20471;-87
2021/07/13 00:47:05;;;;;;;20.85;10.00;;;;;;;;;;5071283;28;20035;-87
2021/07/13 00:49:30;;;;;;;18.17;8.90;;;;;;;;;;5073005;28;20095;-86
2021/07/13 00:51:55;;;;;;;22.55;9.77;;;;;;;;;;5068119;28;20454;-87
2021/07/13 00:54:21;;;;;;;18.23;9.25;;;;;;;;;;5061016;28;20078;-86
2021/07/13 00:56:49;;;;;;;149.82;13.98;;;;;;;;;;5071362;28;20484;-86
2021/07/13 00:59:14;;;;;;;15.60;11.50;;;;;;;;;;5073002;28;20066;-86
2021/07/13 01:01:39;;;;;;;18.60;12.10;;;;;;;;;;5078018;28;20020;-87
2021/07/13 01:04:05;;;;;;;22.52;12.85;;;;;;;;;;5079304;28;20464;-87
2021/07/13 01:06:43;;;;;;;23.17;10.98;;;;;;;;;;5076160;28;20429;-87
2021/07/13 01:09:12;;;;;;;14.10;10.27;;;;;;;;;;5077419;28;20028;-86
2021/07/13 01:11:46;;;;;;;21.85;10.30;;;;;;;;;;5078156;28;20024;-87
2021/07/13 01:14:14;;;;;;;19.73;9.23;;;;;;;;;;5078022;28;20020;-86
2021/07/13 01:16:48;;;;;;;19.48;8.95;;;;;;;;;;5079329;28;20154;-86
2021/07/13 01:19:35;;;;;;;49.22;8.73;;;;;;;;;;5059821;28;20016;-86
2021/07/13 01:22:01;;;;;;;28.58;8.40;;;;;;;;;;5076391;28;20032;-87
2021/07/13 01:24:45;;;;;;;71.63;10.40;;;;;;;;;;5077829;28;20024;-86
2021/07/13 01:27:15;;;;;;;112.65;11.98;;;;;;;;;;5068522;28;20024;-87
2021/07/13 01:29:43;;;;;;;66.05;11.18;;;;;;;;;;5072115;28;20437;-87
2021/07/13 01:32:11;;;;;;;45.50;11.07;;;;;;;;;;5066552;28;20028;-86
2021/07/13 01:34:38;;;;;;;17.45;10.63;;;;;;;;;;5077781;28;20032;-87
2021/07/13 01:37:06;;;;;;;16.08;10.57;;;;;;;;;;5077820;28;20024;-87
2021/07/13 01:39:31;;;;;;;34.35;12.70;;;;;;;;;;5077833;28;20020;-87
2021/07/13 01:41:58;;;;;;;15.30;9.45;;;;;;;;;;5072473;28;20525;-87
2021/07/13 01:44:24;;;;;;;25.98;8.95;;;;;;;;;;5069250;28;20383;-87
2021/07/13 01:46:50;;;;;;;14.85;8.75;;;;;;;;;;5078933;28;20028;-86
2021/07/13 01:49:19;;;;;;;30.63;9.65;;;;;;;;;;5078039;28;20426;-86
2021/07/13 01:51:47;;;;;;;13.68;8.52;;;;;;;;;;5069338;28;20031;-87
2021/07/13 01:54:13;;;;;;;22.88;9.25;;;;;;;;;;5067290;28;20075;-87
2021/07/13 01:56:38;;;;;;;15.23;9.82;;;;;;;;;;5064852;28;20052;-87
2021/07/13 01:59:04;;;;;;;21.02;9.13;;;;;;;;;;5077700;28;20028;-87
2021/07/13 02:01:31;;;;;;;25.05;9.50;;;;;;;;;;5077755;28;20020;-86
2021/07/13 02:03:57;;;;;;;19.80;9.73;;;;;;;;;;5074508;28;20364;-87
2021/07/13 02:06:24;;;;;;;15.30;9.43;;;;;;;;;;5068092;28;20021;-86
2021/07/13 02:08:51;;;;;;;20.10;10.05;;;;;;;;;;5074976;28;20115;-87
2021/07/13 02:11:16;;;;;;;14.35;8.85;;;;;;;;;;5063437;28;20021;-87
2021/07/13 02:13:42;;;;;;;17.30;9.07;;;;;;;;;;5053145;28;20021;-87
2021/07/13 02:16:07;;;;;;;16.60;8.88;;;;;;;;;;5054487;28;20024;-87
2021/07/13 02:18:33;;;;;;;13.90;9.80;;;;;;;;;;5054222;28;20020;-87
2021/07/13 02:20:58;;;;;;;14.13;10.60;;;;;;;;;;5055145;28;20005;-87
2021/07/13 02:23:23;;;;;;;15.48;11.25;;;;;;;;;;5054025;28;20549;-86
2021/07/13 02:25:51;;;;;;;16.40;10.70;;;;;;;;;;5082252;28;20031;-87
2021/07/13 02:28:24;;;;;;;22.42;11.20;;;;;;;;;;5087674;28;20025;-87
2021/07/13 02:30:56;;;;;;;18.42;10.55;;;;;;;;;;5055572;28;20021;-87
2021/07/13 02:33:23;;;;;;;19.40;10.05;;;;;;;;;;5055357;28;20070;-86
2021/07/13 02:35:51;;;;;;;20.83;10.38;;;;;;;;;;5087477;28;20033;-87
2021/07/13 02:38:18;;;;;;;13.38;9.93;;;;;;;;;;5055282;28;20094;-86
2021/07/13 02:40:45;;;;;;;26.58;10.25;;;;;;;;;;5053877;28;20029;-87
2021/07/13 02:43:10;;;;;;;15.32;9.95;;;;;;;;;;5087570;28;20502;-87
2021/07/13 02:45:36;;;;;;;14.60;10.98;;;;;;;;;;5054861;28;20052;-87
2021/07/13 02:48:02;;;;;;;17.23;11.30;;;;;;;;;;5087294;28;20435;-87
2021/07/13 02:50:29;;;;;;;18.83;11.50;;;;;;;;;;5087139;28;20029;-86
2021/07/13 02:52:55;;;;;;;21.20;9.70;;;;;;;;;;5078490;28;20126;-87
2021/07/13 02:55:21;;;;;;;12.45;9.98;;;;;;;;;;5053226;28;20078;-86
2021/07/13 02:57:47;;;;;;;16.20;12.68;;;;;;;;;;5052121;28;20380;-86
2021/07/13 03:00:14;;;;;;;20.38;14.25;;;;;;;;;;5054709;28;20032;-86
2021/07/13 03:02:40;;;;;;;21.42;15.10;;;;;;;;;;5054723;28;20459;-87
2021/07/13 03:05:05;;;;;;;30.92;16.13;;;;;;;;;;5054840;28;20384;-87
2021/07/13 03:07:32;;;;;;;23.95;14.80;;;;;;;;;;5087021;28;20025;-87
2021/07/13 03:09:57;;;;;;;23.17;14.13;;;;;;;;;;5054972;28;20560;-87
2021/07/13 03:12:23;;;;;;;24.77;15.65;;;;;;;;;;5053196;28;20050;-87
2021/07/13 03:14:49;;;;;;;30.83;15.23;;;;;;;;;;5086961;28;20013;-86
2021/07/13 03:17:15;;;;;;;17.77;13.15;;;;;;;;;;5086761;28;20021;-87
2021/07/13 03:19:40;;;;;;;22.95;12.68;;;;;;;;;;5054433;28;20049;-87
2021/07/13 03:22:09;;;;;;;16.00;12.55;;;;;;;;;;5085973;28;20396;-87
2021/07/13 03:24:36;;;;;;;22.02;15.30;;;;;;;;;;5086457;28;20043;-87
2021/07/13 03:27:02;;;;;;;24.13;14.88;;;;;;;;;;5086798;28;20117;-87
2021/07/13 03:29:28;;;;;;;22.92;12.82;;;;;;;;;;5086514;28;20025;-86
2021/07/13 03:31:54;;;;;;;16.92;12.60;;;;;;;;;;5086640;28;20025;-86
2021/07/13 03:34:20;;;;;;;20.42;11.93;;;;;;;;;;5053053;28;20482;-87
2021/07/13 03:36:47;;;;;;;18.15;12.40;;;;;;;;;;5053906;28;20448;-87
2021/07/13 03:39:13;;;;;;;17.05;12.10;;;;;;;;;;5052968;28;20068;-87
2021/07/13 03:41:39;;;;;;;15.93;12.02;;;;;;;;;;5086318;28;20437;-87
2021/07/13 03:44:05;;;;;;;14.77;11.07;;;;;;;;;;5086586;28;20063;-87
2021/07/13 03:46:37;;;;;;;17.15;11.65;;;;;;;;;;5052624;28;20064;-87
2021/07/13 03:49:03;;;;;;;15.05;12.02;;;;;;;;;;5054055;28;20020;-87
2021/07/13 03:51:35;;;;;;;15.23;12.20;;;;;;;;;;5085464;28;20043;-87
2021/07/13 03:54:00;;;;;;;23.80;12.50;;;;;;;;;;5039501;28;20031;-86
2021/07/13 03:56:26;;;;;;;22.13;13.32;;;;;;;;;;5052563;28;20328;-87
2021/07/13 03:58:53;;;;;;;24.98;15.30;;;;;;;;;;5085899;28;20499;-87
2021/07/13 04:01:18;;;;;;;22.17;14.13;;;;;;;;;;5051999;28;20062;-87
2021/07/13 04:03:43;;;;;;;24.10;13.45;;;;;;;;;;5051891;28;20498;-87
2021/07/13 04:06:08;;;;;;;16.13;12.27;;;;;;;;;;5052477;28;20044;-87
2021/07/13 04:08:34;;;;;;;26.90;12.98;;;;;;;;;;5052262;28;20021;-87
2021/07/13 04:10:59;;;;;;;21.10;13.73;;;;;;;;;;5086010;28;20028;-87
2021/07/13 04:13:27;;;;;;;17.63;12.63;;;;;;;;;;5085877;28;20017;-87
2021/07/13 04:15:52;;;;;;;20.88;14.82;;;;;;;;;;5085549;28;20024;-87
2021/07/13 04:18:17;;;;;;;24.42;15.23;;;;;;;;;;5053528;28;20100;-87
2021/07/13 04:20:42;;;;;;;25.25;16.05;;;;;;;;;;5085620;28;20074;-87
2021/07/13 04:23:07;;;;;;;23.42;17.08;;;;;;;;;;5053049;28;20045;-87
2021/07/13 04:25:32;;;;;;;32.03;16.85;;;;;;;;;;5053360;28;20013;-87
2021/07/13 04:27:58;;;;;;;24.75;16.85;;;;;;;;;;5085493;28;20108;-87
2021/07/13 04:30:23;;;;;;;29.33;16.63;;;;;;;;;;5051946;28;20025;-87
2021/07/13 04:32:48;;;;;;;23.90;16.10;;;;;;;;;;5053008;28;20111;-87
2021/07/13 04:35:13;;;;;;;24.08;16.40;;;;;;;;;;5052796;28;20017;-87
2021/07/13 04:37:39;;;;;;;20.52;15.35;;;;;;;;;;5085343;28;20032;-87
2021/07/13 04:40:04;;;;;;;23.45;14.90;;;;;;;;;;5052990;28;20024;-87
2021/07/13 04:42:30;;;;;;;26.30;13.40;;;;;;;;;;5053029;28;20025;-87
2021/07/13 04:44:55;;;;;;;18.70;13.57;;;;;;;;;;5052832;28;20010;-86
2021/07/13 04:47:20;;;;;;;23.13;15.73;;;;;;;;;;5053149;28;20032;-87
2021/07/13 04:49:46;;;;;;;21.63;14.65;;;;;;;;;;5085556;28;20036;-87
2021/07/13 04:52:11;;;;;;;25.52;15.98;;;;;;;;;;5051225;28;20048;-87
2021/07/13 04:54:36;;;;;;;19.83;14.32;;;;;;;;;;5078707;28;20025;-87
2021/07/13 04:57:02;;;;;;;26.13;14.88;;;;;;;;;;5051370;28;20464;-87
2021/07/13 04:59:27;;;;;;;19.38;12.88;;;;;;;;;;5052897;28;20087;-87
2021/07/13 05:01:52;;;;;;;25.90;15.48;;;;;;;;;;5052978;28;20421;-87
2021/07/13 05:04:18;;;;;;;27.38;16.00;;;;;;;;;;5052838;28;20017;-86
2021/07/13 05:06:43;;;;;;;24.95;15.48;;;;;;;;;;5051552;28;20487;-86
2021/07/13 05:09:08;;;;;;;30.85;17.63;;;;;;;;;;5051430;28;20027;-86
2021/07/13 05:11:37;;;;;;;25.15;17.05;;;;;;;;;;5085123;28;20476;-87
2021/07/13 05:14:02;;;;;;;25.92;17.60;;;;;;;;;;5085024;28;20060;-87
2021/07/13 05:16:28;;;;;;;30.00;18.67;;;;;;;;;;5085402;28;20070;-86
2021/07/13 05:18:54;;;;;;;26.85;16.25;;;;;;;;;;5085010;28;20104;-87
2021/07/13 05:21:19;;;;;;;26.25;17.20;;;;;;;;;;5081529;28;20062;-86
2021/07/13 05:23:44;;;;;;;26.70;17.10;;;;;;;;;;5050878;28;20025;-86
2021/07/13 05:26:09;;;;;;;26.92;16.35;;;;;;;;;;5051268;28;20040;-86
2021/07/13 05:28:34;;;;;;;29.45;15.57;;;;;;;;;;5052810;28;20403;-87
2021/07/13 05:31:00;;;;;;;21.65;15.82;;;;;;;;;;5051349;28;20048;-87
2021/07/13 05:33:25;;;;;;;24.13;15.05;;;;;;;;;;5084745;28;20017;-87
2021/07/13 05:35:50;;;;;;;25.30;15.00;;;;;;;;;;5051610;28;20055;-87
2021/07/13 05:38:15;;;;;;;24.60;16.02;;;;;;;;;;5051154;28;20017;-87
2021/07/13 05:40:43;;;;;;;30.75;17.35;;;;;;;;;;5051240;28;20023;-87
2021/07/13 05:43:09;;;;;;;30.38;18.45;;;;;;;;;;5052313;28;20092;-86
2021/07/13 05:45:34;;;;;;;35.65;19.27;;;;;;;;;;5084738;28;20436;-86
2021/07/13 05:47:59;;;;;;;30.52;20.23;;;;;;;;;;5054852;28;20017;-86
2021/07/13 05:50:24;;;;;;;38.83;21.30;;;;;;;;;;5054977;28;20033;-86
2021/07/13 05:52:49;;;;;;;37.40;21.15;;;;;;;;;;5055828;28;20473;-86
2021/07/13 05:55:15;;;;;;;34.90;21.77;;;;;;;;;;5088020;28;20021;-86
2021/07/13 05:57:40;;;;;;;40.15;24.92;;;;;;;;;;5055163;28;20029;-86
2021/07/13 06:00:06;;;;;;;42.40;24.05;;;;;;;;;;5049392;28;20028;-87
2021/07/13 06:02:31;;;;;;;44.63;27.42;;;;;;;;;;5088148;28;20020;-87
2021/07/13 06:04:57;;;;;;;50.63;26.98;;;;;;;;;;5055829;28;20025;-87
2021/07/13 06:07:22;;;;;;;46.50;27.25;;;;;;;;;;5054368;28;20017;-87
2021/07/13 06:09:47;;;;;;;50.47;28.73;;;;;;;;;;5054474;28;20028;-87
2021/07/13 06:12:12;;;;;;;48.28;28.27;;;;;;;;;;5087855;28;20385;-87
2021/07/13 06:14:37;;;;;;;59.17;29.88;;;;;;;;;;5081649;28;20465;-87
2021/07/13 06:17:06;;;;;;;53.40;31.10;;;;;;;;;;5048511;28;20020;-87
2021/07/13 06:19:32;;;;;;;49.38;28.08;;;;;;;;;;5050882;28;20457;-87
2021/07/13 06:21:57;;;;;;;60.47;31.08;;;;;;;;;;5053722;28;20067;-87
2021/07/13 06:24:23;;;;;;;57.03;29.92;;;;;;;;;;5087567;28;20009;-87
2021/07/13 06:26:48;;;;;;;58.15;29.70;;;;;;;;;;5055538;28;20032;-87
2021/07/13 06:29:13;;;;;;;69.68;33.35;;;;;;;;;;5055382;28;20452;-87
2021/07/13 06:31:38;;;;;;;69.35;35.15;;;;;;;;;;5054987;28;20021;-87
2021/07/13 06:34:03;;;;;;;72.55;34.80;;;;;;;;;;5053741;28;20032;-86
2021/07/13 06:36:29;;;;;;;77.45;37.05;;;;;;;;;;5054959;28;20417;-87
2021/07/13 06:38:54;;;;;;;85.82;40.63;;;;;;;;;;5087278;28;20027;-86
2021/07/13 06:41:19;;;;;;;105.30;46.08;;;;;;;;;;5053795;28;20061;-87
2021/07/13 06:43:44;;;;;;;102.50;43.47;;;;;;;;;;5053855;28;20013;-87
2021/07/13 06:46:09;;;;;;;116.88;45.42;;;;;;;;;;5087099;28;20071;-87
2021/07/13 06:48:36;;;;;;;129.02;51.92;;;;;;;;;;5053964;28;20049;-87
2021/07/13 06:51:01;;;;;;;138.05;53.92;;;;;;;;;;5086981;28;20172;-87
2021/07/13 06:53:26;;;;;;;143.27;52.35;;;;;;;;;;5053648;28;20025;-87
2021/07/13 06:55:51;;;;;;;148.15;57.58;;;;;;;;;;5053654;28;20017;-87
2021/07/13 06:58:17;;;;;;;150.05;56.70;;;;;;;;;;5053220;28;20021;-87
2021/07/13 07:00:42;;;;;;;121.85;43.67;;;;;;;;;;5054750;28;20024;-88
2021/07/13 07:03:07;;;;;;;184.25;60.28;;;;;;;;;;5086767;28;20032;-87
2021/07/13 07:05:32;;;;;;;184.40;62.75;;;;;;;;;;5086765;28;20013;-86
2021/07/13 07:07:58;;;;;;;173.23;60.78;;;;;;;;;;5086971;28;20020;-87
2021/07/13 07:10:24;;;;;;;200.90;64.47;;;;;;;;;;5086563;28;20028;-87
2021/07/13 07:12:49;;;;;;;201.02;67.05;;;;;;;;;;5086910;28;20071;-87
2021/07/13 07:15:15;;;;;;;201.27;61.75;;;;;;;;;;5053327;28;20013;-88
2021/07/13 07:17:41;;;;;;;224.35;69.82;;;;;;;;;;5085380;28;20107;-86
2021/07/13 07:20:07;;;;;;;230.13;70.05;;;;;;;;;;5050416;28;20166;-88
2021/07/13 07:22:32;;;;;;;238.43;70.68;;;;;;;;;;5050859;28;20496;-87
2021/07/13 07:24:57;;;;;;;259.52;73.70;;;;;;;;;;5052747;28;20013;-87
2021/07/13 07:27:23;;;;;;;233.77;67.95;;;;;;;;;;5094402;28;20436;-87
2021/07/13 07:29:48;;;;;;;275.02;76.55;;;;;;;;;;5052611;28;20028;-87
2021/07/13 07:32:13;;;;;;;263.00;76.35;;;;;;;;;;5086372;28;20090;-87
2021/07/13 07:34:38;;;;;;;268.88;75.55;;;;;;;;;;5097411;28;20024;-87
2021/07/13 07:37:03;;;;;;;264.75;74.95;;;;;;;;;;5086151;28;20047;-87
2021/07/13 07:39:29;;;;;;;268.80;74.00;;;;;;;;;;5052507;28;20017;-87
2021/07/13 07:41:54;;;;;;;271.10;75.82;;;;;;;;;;5053672;28;20021;-87
2021/07/13 07:44:23;;;;;;;297.17;77.47;;;;;;;;;;5060586;28;20024;-87
2021/07/13 07:46:48;;;;;;;267.85;72.57;;;;;;;;;;5051627;28;20037;-88
2021/07/13 07:49:13;;;;;;;235.85;68.03;;;;;;;;;;5057641;28;20539;-87
2021/07/13 07:51:38;;;;;;;265.00;73.95;;;;;;;;;;5052563;28;20104;-87
2021/07/13 07:54:04;;;;;;;271.38;70.72;;;;;;;;;;5051857;28;20025;-87
2021/07/13 07:56:29;;;;;;;259.83;71.55;;;;;;;;;;5051592;28;20021;-87
2021/07/13 07:58:54;;;;;;;315.67;78.90;;;;;;;;;;5051758;28;20464;-86
2021/07/13 08:01:19;;;;;;;271.42;72.20;;;;;;;;;;5053586;28;20027;-87
2021/07/13 08:03:44;;;;;;;280.20;72.70;;;;;;;;;;5051925;28;20025;-86
2021/07/13 08:06:10;;;;;;;218.50;60.40;;;;;;;;;;5084659;28;20514;-87
2021/07/13 08:08:35;;;;;;;289.08;75.22;;;;;;;;;;5063537;28;20017;-87
2021/07/13 08:11:00;;;;;;;236.38;65.35;;;;;;;;;;5052119;28;20017;-86
2021/07/13 08:13:25;;;;;;;289.83;76.28;;;;;;;;;;5052147;28;20448;-87
2021/07/13 08:15:51;;;;;;;269.85;75.05;;;;;;;;;;5052996;28;20107;-86
2021/07/13 08:18:19;;;;;;;290.20;78.30;;;;;;;;;;5051725;28;20052;-86
2021/07/13 08:20:44;;;;;;;264.60;74.60;;;;;;;;;;5051547;28;20020;-86
2021/07/13 08:23:09;;;;;;;263.38;75.05;;;;;;;;;;5051883;28;20365;-87
2021/07/13 08:25:35;;;;;;;250.57;70.53;;;;;;;;;;5085258;28;20393;-86
2021/07/13 08:28:00;;;;;;;236.75;68.63;;;;;;;;;;5049689;28;20396;-87
2021/07/13 08:30:27;;;;;;;231.00;68.97;;;;;;;;;;5051746;28;20036;-87
2021/07/13 08:32:52;;;;;;;232.35;67.57;;;;;;;;;;5050718;28;20025;-87
2021/07/13 08:35:18;;;;;;;241.27;66.10;;;;;;;;;;5073425;28;20127;-87
2021/07/13 08:37:43;;;;;;;250.38;67.55;;;;;;;;;;5051200;28;20017;-87
2021/07/13 08:40:09;;;;;;;270.33;74.18;;;;;;;;;;5051405;28;20099;-87
2021/07/13 08:42:36;;;;;;;253.63;72.20;;;;;;;;;;5051628;28;20027;-87
2021/07/13 08:45:04;;;;;;;278.48;71.18;;;;;;;;;;5051042;28;20025;-87
2021/07/13 08:47:29;;;;;;;241.20;67.88;;;;;;;;;;5044254;28;20029;-87
2021/07/13 08:49:54;;;;;;;238.27;64.22;;;;;;;;;;5050316;28;20035;-87
2021/07/13 08:52:20;;;;;;;239.02;67.88;;;;;;;;;;5051305;28;20029;-87
2021/07/13 08:54:45;;;;;;;231.00;66.03;;;;;;;;;;5082585;28;20492;-87
2021/07/13 08:57:10;;;;;;;240.77;70.75;;;;;;;;;;5080752;28;20036;-87
2021/07/13 08:59:36;;;;;;;255.25;68.18;;;;;;;;;;5050763;28;20032;-87
2021/07/13 09:02:01;;;;;;;273.48;74.97;;;;;;;;;;5050907;28;20025;-87
2021/07/13 09:04:33;;;;;;;253.93;70.32;;;;;;;;;;5077525;28;20032;-87
2021/07/13 09:06:59;;;;;;;266.02;76.35;;;;;;;;;;5052402;28;20029;-87
2021/07/13 09:09:31;;;;;;;258.52;70.10;;;;;;;;;;5084767;28;20024;-87
2021/07/13 09:12:15;;;;;;;262.13;73.38;;;;;;;;;;5051165;28;20115;-87
2021/07/13 09:14:57;;;;;;;274.15;76.50;;;;;;;;;;5063071;28;20739;-87
2021/07/13 09:17:28;;;;;;;255.02;75.50;;;;;;;;;;5058144;28;20025;-87
2021/07/13 09:19:58;;;;;;;222.93;70.05;;;;;;;;;;5055536;28;20082;-87
2021/07/13 09:22:23;;;;;;;255.05;73.95;;;;;;;;;;5062209;28;20012;-88
2021/07/13 09:24:48;;;;;;;228.52;65.68;;;;;;;;;;5063950;28;20020;-87
2021/07/13 09:27:16;;;;;;;241.77;73.05;;;;;;;;;;5065790;28;20016;-87
2021/07/13 09:29:48;;;;;;;249.25;75.63;;;;;;;;;;5053584;28;20418;-87
2021/07/13 09:32:25;;;;;;;243.60;73.05;;;;;;;;;;5054035;28;20021;-87
2021/07/13 09:35:04;;;;;;;211.90;64.85;;;;;;;;;;5057425;28;20032;-88
2021/07/13 09:37:34;;;;;;;217.45;71.50;;;;;;;;;;5060533;28;20095;-87
2021/07/13 09:40:13;;;;;;;202.07;70.75;;;;;;;;;;5057185;28;20059;-87
2021/07/13 09:42:42;;;;;;;201.15;69.28;;;;;;;;;;5072197;28;20024;-87
2021/07/13 09:45:21;;;;;;;224.32;75.07;;;;;;;;;;5055609;28;20034;-86
2021/07/13 09:47:47;;;;;;;191.73;71.53;;;;;;;;;;5065334;28;20020;-87
2021/07/13 09:50:12;;;;;;;201.55;70.32;;;;;;;;;;5055129;28;20028;-87
2021/07/13 09:52:38;;;;;;;177.88;64.95;;;;;;;;;;5059663;28;20020;-88
2021/07/13 09:55:14;;;;;;;180.60;71.20;;;;;;;;;;5064176;28;20021;-88
2021/07/13 09:57:39;;;;;;;162.10;65.25;;;;;;;;;;5066093;28;20026;-87
2021/07/13 10:00:04;;;;;;;158.15;65.10;;;;;;;;;;5045452;28;20401;-87
2021/07/13 10:02:30;;;;;;;157.93;63.97;;;;;;;;;;5057567;28;20388;-87
2021/07/13 10:04:56;;;;;;;159.90;59.83;;;;;;;;;;5054363;28;20024;-87
2021/07/13 10:07:21;;;;;;;150.30;61.58;;;;;;;;;;5049445;28;20057;-87
2021/07/13 10:09:51;;;;;;;183.32;70.07;;;;;;;;;;5046550;28;20091;-87
2021/07/13 10:12:17;;;;;;;162.40;62.15;;;;;;;;;;5054700;28;20099;-87
2021/07/13 10:14:44;;;;;;;177.13;70.95;;;;;;;;;;5054853;28;20056;-87
2021/07/13 10:17:10;;;;;;;146.25;61.55;;;;;;;;;;5055307;28;20025;-88
2021/07/13 10:19:38;;;;;;;151.32;61.63;;;;;;;;;;5087818;28;20017;-88
2021/07/13 10:22:04;;;;;;;158.80;60.05;;;;;;;;;;5087349;28;20025;-88
2021/07/13 10:24:30;;;;;;;176.77;61.95;;;;;;;;;;5087577;28;20026;-87
2021/07/13 10:26:55;;;;;;;183.65;66.82;;;;;;;;;;5053480;28;20040;-88
2021/07/13 10:29:40;;;;;;;209.73;71.85;;;;;;;;;;5087662;28;20033;-87
2021/07/13 10:32:07;;;;;;;248.88;77.35;;;;;;;;;;5065226;28;20431;-87
2021/07/13 10:34:52;;;;;;;238.95;74.05;;;;;;;;;;5072350;28;20020;-88
2021/07/13 10:37:27;;;;;;;254.50;79.30;;;;;;;;;;5059238;28;20082;-88
2021/07/13 10:39:54;;;;;;;275.63;79.70;;;;;;;;;;5061487;28;20047;-88
2021/07/13 10:42:38;;;;;;;216.27;66.90;;;;;;;;;;5063351;28;20013;-88
2021/07/13 10:45:13;;;;;;;183.85;61.88;;;;;;;;;;5063541;28;20112;-88
2021/07/13 10:47:57;;;;;;;226.32;76.57;;;;;;;;;;5057481;28;20443;-88
2021/07/13 10:50:23;;;;;;;194.20;70.55;;;;;;;;;;5059704;28;20419;-88
2021/07/13 10:52:52;;;;;;;174.82;66.38;;;;;;;;;;5054962;28;20078;-88
2021/07/13 10:55:29;;;;;;;196.77;72.25;;;;;;;;;;5050890;28;20382;-88
2021/07/13 10:58:10;;;;;;;207.77;73.75;;;;;;;;;;5044228;28;20029;-88
2021/07/13 11:00:47;;;;;;;209.38;72.25;;;;;;;;;;5054211;28;20025;-88
2021/07/13 11:03:31;;;;;;;207.95;71.43;;;;;;;;;;5055769;28;20029;-88
2021/07/13 11:06:07;;;;;;;214.73;73.85;;;;;;;;;;5051975;28;20437;-88
2021/07/13 11:08:38;;;;;;;220.10;73.78;;;;;;;;;;5049580;28;20049;-88
2021/07/13 11:11:04;;;;;;;203.15;69.88;;;;;;;;;;5054799;28;20025;-88
2021/07/13 11:13:29;;;;;;;203.27;66.35;;;;;;;;;;5052555;28;20027;-88
2021/07/13 11:15:56;;;;;;;203.32;68.63;;;;;;;;;;5053668;28;20104;-88
2021/07/13 11:18:28;;;;;;;176.15;63.10;;;;;;;;;;5053212;28;20096;-88
2021/07/13 11:20:53;;;;;;;156.82;57.78;;;;;;;;;;5061346;28;20017;-87
2021/07/13 11:23:28;;;;;;;163.10;63.42;;;;;;;;;;5044166;28;20052;-88
2021/07/13 11:26:05;;;;;;;175.77;65.45;;;;;;;;;;5048588;28;20029;-88
2021/07/13 11:28:31;;;;;;;155.55;62.47;;;;;;;;;;5044863;28;20079;-88
2021/07/13 11:30:57;;;;;;;143.00;56.53;;;;;;;;;;5054667;28;20036;-88
2021/07/13 11:33:26;;;;;;;150.18;59.53;;;;;;;;;;5049927;28;20021;-88
2021/07/13 11:35:52;;;;;;;162.70;63.92;;;;;;;;;;5044215;28;20028;-88
2021/07/13 11:38:25;;;;;;;151.75;62.88;;;;;;;;;;5053914;28;20017;-87
2021/07/13 11:41:10;;;;;;;144.70;60.20;;;;;;;;;;5053906;28;20029;-88
2021/07/13 11:43:35;;;;;;;146.20;58.58;;;;;;;;;;5052566;28;20384;-88
2021/07/13 11:46:19;;;;;;;132.85;52.95;;;;;;;;;;5053865;28;20059;-88
2021/07/13 11:48:55;;;;;;;166.43;64.00;;;;;;;;;;5052691;28;20473;-88
2021/07/13 11:51:27;;;;;;;155.77;63.33;;;;;;;;;;5085404;28;20033;-88
2021/07/13 11:54:09;;;;;;;131.38;56.03;;;;;;;;;;5052642;28;20082;-88
2021/07/13 11:56:35;;;;;;;130.13;57.13;;;;;;;;;;5052641;28;20469;-88
2021/07/13 11:59:01;;;;;;;124.45;56.83;;;;;;;;;;5043778;28;20411;-88
2021/07/13 12:01:27;;;;;;;127.50;56.85;;;;;;;;;;5053715;28;20066;-88
2021/07/13 12:03:53;;;;;;;131.82;58.13;;;;;;;;;;5052482;28;20021;-88
2021/07/13 12:06:20;;;;;;;133.15;58.35;;;;;;;;;;5060552;28;20092;-88
2021/07/13 12:08:53;;;;;;;151.68;61.17;;;;;;;;;;5062301;28;20468;-87
2021/07/13 12:11:22;;;;;;;142.95;56.92;;;;;;;;;;5060853;28;20021;-88
2021/07/13 12:13:47;;;;;;;157.90;61.92;;;;;;;;;;5065901;28;20017;-87
2021/07/13 12:16:33;;;;;;;131.13;51.90;;;;;;;;;;5093022;28;20033;-88
2021/07/13 12:19:08;;;;;;;131.60;54.17;;;;;;;;;;5059105;28;20056;-89
2021/07/13 12:21:33;;;;;;;137.23;55.42;;;;;;;;;;5085721;28;20021;-88
2021/07/13 12:23:59;;;;;;;129.88;53.63;;;;;;;;;;5052498;28;20570;-88
2021/07/13 12:26:26;;;;;;;122.53;52.40;;;;;;;;;;5053411;28;20049;-89
2021/07/13 12:29:04;;;;;;;100.88;46.15;;;;;;;;;;5055728;28;20104;-89
2021/07/13 12:31:29;;;;;;;107.30;48.35;;;;;;;;;;5052167;28;20115;-90
2021/07/13 12:33:55;;;;;;;95.20;42.80;;;;;;;;;;5047517;28;20115;-90
2021/07/13 12:36:24;;;;;;;96.32;45.35;;;;;;;;;;5042571;28;20094;-89
2021/07/13 12:38:49;;;;;;;89.40;43.90;;;;;;;;;;5086004;28;20094;-89
2021/07/13 12:41:15;;;;;;;96.55;42.30;;;;;;;;;;5053222;28;20064;-88
2021/07/13 12:43:40;;;;;;;81.05;39.22;;;;;;;;;;5050071;28;20495;-89
2021/07/13 12:46:23;;;;;;;97.90;50.05;;;;;;;;;;5052756;28;20029;-89
2021/07/13 12:48:49;;;;;;;87.10;41.58;;;;;;;;;;5048860;28;20029;-89
2021/07/13 12:51:21;;;;;;;82.88;40.83;;;;;;;;;;5052164;28;20020;-89
2021/07/13 12:53:46;;;;;;;91.65;45.25;;;;;;;;;;5052760;28;20116;-89
2021/07/13 12:56:14;;;;;;;106.65;46.28;;;;;;;;;;5049991;28;20131;-89
2021/07/13 12:58:39;;;;;;;102.03;47.20;;;;;;;;;;5047911;28;20043;-89
2021/07/13 13:01:11;;;;;;;117.93;52.25;;;;;;;;;;5059647;28;20013;-88
2021/07/13 13:03:37;;;;;;;;;;;;;;;;;;5053539;28;20021;-89
2021/07/13 13:06:08;;;;;;;96.80;41.88;;;;;;;;;;5058269;28;20348;-89
2021/07/13 13:08:36;;;;;;;97.85;42.20;;;;;;;;;;5047829;28;20388;-89
2021/07/13 13:11:09;;;;;;;102.05;46.58;;;;;;;;;;5051961;28;20048;-89
2021/07/13 13:13:35;;;;;;;96.10;44.10;;;;;;;;;;5045810;28;20032;-89
2021/07/13 13:16:01;;;;;;;103.93;45.75;;;;;;;;;;5051589;28;20081;-89
2021/07/13 13:18:27;;;;;;;95.43;45.20;;;;;;;;;;5052939;28;20013;-89
2021/07/13 13:20:53;;;;;;;88.78;41.25;;;;;;;;;;5051698;28;20028;-89
2021/07/13 13:23:18;;;;;;;98.85;43.08;;;;;;;;;;5037849;28;20020;-89
2021/07/13 13:25:43;;;;;;;91.03;42.83;;;;;;;;;;5050720;28;20025;-89
2021/07/13 13:28:10;;;;;;;80.95;36.03;;;;;;;;;;5051650;28;20013;-89
2021/07/13 13:30:35;;;;;;;83.20;38.55;;;;;;;;;;5051383;28;20021;-89
2021/07/13 13:33:01;;;;;;;102.63;46.92;;;;;;;;;;5051016;28;20039;-89
2021/07/13 13:40:51;;;;;;;83.75;36.42;;;;;;;;;;5052770;28;20535;-90
2021/07/13 13:43:17;;;;;;;102.97;45.33;;;;;;;;;;5051438;28;20113;-89
2021/07/13 13:45:42;;;;;;;109.20;48.10;;;;;;;;;;5050627;28;20115;-89
2021/07/13 13:48:07;;;;;;;118.00;50.88;;;;;;;;;;5050544;28;20041;-88
2021/07/13 13:50:33;;;;;;;121.88;49.85;;;;;;;;;;5052850;28;20024;-89
2021/07/13 13:52:58;;;;;;;123.75;53.92;;;;;;;;;;5052710;28;20075;-89
2021/07/13 13:55:23;;;;;;;108.15;48.20;;;;;;;;;;5085039;28;20025;-90
2021/07/13 13:57:51;;;;;;;109.13;52.83;;;;;;;;;;5084517;28;20021;-89
2021/07/13 14:00:16;;;;;;;98.90;45.22;;;;;;;;;;5051705;28;20054;-89
2021/07/13 14:02:42;;;;;;;96.57;43.15;;;;;;;;;;5052976;28;20444;-89
2021/07/13 14:05:07;;;;;;;100.50;47.00;;;;;;;;;;5051624;28;20159;-90
2021/07/13 14:07:32;;;;;;;90.63;44.72;;;;;;;;;;5051413;28;20100;-89
2021/07/13 14:09:58;;;;;;;86.93;39.72;;;;;;;;;;5056452;28;20036;-89
2021/07/13 14:12:23;;;;;;;89.43;46.45;;;;;;;;;;5056363;28;20460;-89
2021/07/13 14:14:48;;;;;;;92.97;45.50;;;;;;;;;;5055457;28;20013;-90
2021/07/13 14:17:14;;;;;;;92.40;45.38;;;;;;;;;;5056146;28;20469;-89
2021/07/13 14:19:39;;;;;;;95.03;47.78;;;;;;;;;;5084132;28;20020;-90